sensor_id;sensor_type;location;lat;lon;timestamp;temperature;humidity
35920;DHT22;36160;53.370;-6.196;2023-04-24T00:00:54;9.60;99.90
35920;DHT22;36160;53.370;-6.196;2023-04-24T00:03:24;9.50;99.90
35920;DHT22;36160;53.370;-6.196;2023-04-24T00:05:51;9.60;99.90
35920;DHT22;36160;53.370;-6.196;2023-04-24T00:08:17;9.60;99.90
35920;DHT22;36160;53.370;-6.196;2023-04-24T00:10:43;9.50;99.90
35920;DHT22;36160;53.370;-6.196;2023-04-24T00:13:08;9.50;99.90
35920;DHT22;36160;53.370;-6.196;2023-04-24T00:15:34;9.40;99.90
35920;DHT22;36160;53.370;-6.196;2023-04-24T00:18:00;9.40;99.90
35920;DHT22;36160;53.370;-6.196;2023-04-24T00:20:26;9.30;99.90
35920;DHT22;36160;53.370;-6.196;2023-04-24T00:22:53;9.30;99.90
35920;DHT22;36160;53.370;-6.196;2023-04-24T00:25:19;9.30;99.90
35920;DHT22;36160;53.370;-6.196;2023-04-24T00:27:44;9.30;99.90
35920;DHT22;36160;53.370;-6.196;2023-04-24T00:30:10;9.30;99.90
35920;DHT22;36160;53.370;-6.196;2023-04-24T00:32:35;9.20;99.90
35920;DHT22;36160;53.370;-6.196;2023-04-24T00:35:01;9.10;99.90
35920;DHT22;36160;53.370;-6.196;2023-04-24T00:37:27;9.00;99.90
35920;DHT22;36160;53.370;-6.196;2023-04-24T00:39:52;9.00;99.90
35920;DHT22;36160;53.370;-6.196;2023-04-24T00:42:18;8.90;99.90
35920;DHT22;36160;53.370;-6.196;2023-04-24T00:44:43;8.90;99.90
35920;DHT22;36160;53.370;-6.196;2023-04-24T00:47:09;8.80;99.90
35920;DHT22;36160;53.370;-6.196;2023-04-24T00:49:35;8.80;99.90
35920;DHT22;36160;53.370;-6.196;2023-04-24T00:52:01;8.80;99.90
35920;DHT22;36160;53.370;-6.196;2023-04-24T00:54:27;8.80;99.90
35920;DHT22;36160;53.370;-6.196;2023-04-24T00:56:52;8.90;99.90
35920;DHT22;36160;53.370;-6.196;2023-04-24T00:59:18;8.80;99.90
35920;DHT22;36160;53.370;-6.196;2023-04-24T01:01:44;8.80;99.90
35920;DHT22;36160;53.370;-6.196;2023-04-24T01:04:11;8.80;99.90
35920;DHT22;36160;53.370;-6.196;2023-04-24T01:06:37;8.80;99.90
35920;DHT22;36160;53.370;-6.196;2023-04-24T01:09:03;8.70;99.90
35920;DHT22;36160;53.370;-6.196;2023-04-24T01:11:29;8.70;99.90
35920;DHT22;36160;53.370;-6.196;2023-04-24T01:13:55;8.70;99.90
35920;DHT22;36160;53.370;-6.196;2023-04-24T01:16:21;8.70;99.90
35920;DHT22;36160;53.370;-6.196;2023-04-24T01:18:47;8.70;99.90
35920;DHT22;36160;53.370;-6.196;2023-04-24T01:21:14;8.70;99.90
35920;DHT22;36160;53.370;-6.196;2023-04-24T01:23:40;8.70;99.90
35920;DHT22;36160;53.370;-6.196;2023-04-24T01:26:05;8.70;99.90
35920;DHT22;36160;53.370;-6.196;2023-04-24T01:28:31;8.60;99.90
35920;DHT22;36160;53.370;-6.196;2023-04-24T01:30:56;8.70;99.90
35920;DHT22;36160;53.370;-6.196;2023-04-24T01:33:22;8.60;99.90
35920;DHT22;36160;53.370;-6.196;2023-04-24T01:35:48;8.60;99.90
35920;DHT22;36160;53.370;-6.196;2023-04-24T01:38:14;8.60;99.90
35920;DHT22;36160;53.370;-6.196;2023-04-24T01:40:40;8.60;99.90
35920;DHT22;36160;53.370;-6.196;2023-04-24T01:43:05;8.60;99.90
35920;DHT22;36160;53.370;-6.196;2023-04-24T01:45:31;8.60;99.90
35920;DHT22;36160;53.370;-6.196;2023-04-24T01:47:56;8.60;99.90
35920;DHT22;36160;53.370;-6.196;2023-04-24T01:50:22;8.60;99.90
35920;DHT22;36160;53.370;-6.196;2023-04-24T01:52:47;8.60;99.90
35920;DHT22;36160;53.370;-6.196;2023-04-24T01:55:13;8.60;99.90
35920;DHT22;36160;53.370;-6.196;2023-04-24T01:57:38;8.60;99.90
35920;DHT22;36160;53.370;-6.196;2023-04-24T02:00:05;8.60;99.90
35920;DHT22;36160;53.370;-6.196;2023-04-24T02:02:32;8.60;99.90
35920;DHT22;36160;53.370;-6.196;2023-04-24T02:04:57;8.60;99.90
35920;DHT22;36160;53.370;-6.196;2023-04-24T02:07:23;8.60;99.90
35920;DHT22;36160;53.370;-6.196;2023-04-24T02:09:48;8.70;99.90
35920;DHT22;36160;53.370;-6.196;2023-04-24T02:12:14;8.70;99.90
35920;DHT22;36160;53.370;-6.196;2023-04-24T02:14:40;8.80;99.90
35920;DHT22;36160;53.370;-6.196;2023-04-24T02:17:05;8.80;99.90
35920;DHT22;36160;53.370;-6.196;2023-04-24T02:19:31;8.80;99.90
35920;DHT22;36160;53.370;-6.196;2023-04-24T02:21:57;8.90;99.90
35920;DHT22;36160;53.370;-6.196;2023-04-24T02:24:22;8.90;99.90
35920;DHT22;36160;53.370;-6.196;2023-04-24T02:26:48;8.80;99.90
35920;DHT22;36160;53.370;-6.196;2023-04-24T02:29:14;8.80;99.90
35920;DHT22;36160;53.370;-6.196;2023-04-24T02:31:40;8.80;99.90
35920;DHT22;36160;53.370;-6.196;2023-04-24T02:34:05;8.90;99.90
35920;DHT22;36160;53.370;-6.196;2023-04-24T02:36:31;8.90;99.90
35920;DHT22;36160;53.370;-6.196;2023-04-24T02:38:57;8.90;99.90
35920;DHT22;36160;53.370;-6.196;2023-04-24T02:41:22;8.90;99.90
35920;DHT22;36160;53.370;-6.196;2023-04-24T02:43:48;8.90;99.90
35920;DHT22;36160;53.370;-6.196;2023-04-24T02:46:13;8.90;99.90
35920;DHT22;36160;53.370;-6.196;2023-04-24T02:48:39;8.90;99.90
35920;DHT22;36160;53.370;-6.196;2023-04-24T02:51:04;9.00;99.90
35920;DHT22;36160;53.370;-6.196;2023-04-24T02:53:30;9.00;99.90
35920;DHT22;36160;53.370;-6.196;2023-04-24T02:55:56;9.00;99.90
35920;DHT22;36160;53.370;-6.196;2023-04-24T02:58:21;9.00;99.90
35920;DHT22;36160;53.370;-6.196;2023-04-24T03:00:47;9.00;99.90
35920;DHT22;36160;53.370;-6.196;2023-04-24T03:03:13;9.00;99.90
35920;DHT22;36160;53.370;-6.196;2023-04-24T03:05:39;9.10;99.90
35920;DHT22;36160;53.370;-6.196;2023-04-24T03:08:04;9.10;99.90
35920;DHT22;36160;53.370;-6.196;2023-04-24T03:10:30;9.10;99.90
35920;DHT22;36160;53.370;-6.196;2023-04-24T03:12:55;9.10;99.90
35920;DHT22;36160;53.370;-6.196;2023-04-24T03:15:21;9.10;99.90
35920;DHT22;36160;53.370;-6.196;2023-04-24T03:17:47;9.10;99.90
35920;DHT22;36160;53.370;-6.196;2023-04-24T03:20:13;9.10;99.90
35920;DHT22;36160;53.370;-6.196;2023-04-24T03:22:38;9.20;99.90
35920;DHT22;36160;53.370;-6.196;2023-04-24T03:25:04;9.10;99.90
35920;DHT22;36160;53.370;-6.196;2023-04-24T03:27:30;9.10;99.90
35920;DHT22;36160;53.370;-6.196;2023-04-24T03:29:55;9.10;99.90
35920;DHT22;36160;53.370;-6.196;2023-04-24T03:32:21;9.10;99.90
35920;DHT22;36160;53.370;-6.196;2023-04-24T03:34:48;9.10;99.90
35920;DHT22;36160;53.370;-6.196;2023-04-24T03:37:13;9.10;99.90
35920;DHT22;36160;53.370;-6.196;2023-04-24T03:39:39;9.20;99.90
35920;DHT22;36160;53.370;-6.196;2023-04-24T03:42:04;9.10;99.90
35920;DHT22;36160;53.370;-6.196;2023-04-24T03:44:30;9.20;99.90
35920;DHT22;36160;53.370;-6.196;2023-04-24T03:46:57;9.20;99.90
35920;DHT22;36160;53.370;-6.196;2023-04-24T03:49:23;9.10;99.90
35920;DHT22;36160;53.370;-6.196;2023-04-24T03:51:48;9.10;99.90
35920;DHT22;36160;53.370;-6.196;2023-04-24T03:54:14;9.10;99.90
35920;DHT22;36160;53.370;-6.196;2023-04-24T03:56:39;9.10;99.90
35920;DHT22;36160;53.370;-6.196;2023-04-24T03:59:05;9.10;99.90
35920;DHT22;36160;53.370;-6.196;2023-04-24T04:01:31;9.10;99.90
35920;DHT22;36160;53.370;-6.196;2023-04-24T04:03:56;9.00;99.90
35920;DHT22;36160;53.370;-6.196;2023-04-24T04:06:22;9.00;99.90
35920;DHT22;36160;53.370;-6.196;2023-04-24T04:08:47;9.00;99.90
35920;DHT22;36160;53.370;-6.196;2023-04-24T04:11:13;9.00;99.90
35920;DHT22;36160;53.370;-6.196;2023-04-24T04:13:38;9.10;99.90
35920;DHT22;36160;53.370;-6.196;2023-04-24T04:16:04;9.00;99.90
35920;DHT22;36160;53.370;-6.196;2023-04-24T04:18:30;8.90;99.90
35920;DHT22;36160;53.370;-6.196;2023-04-24T04:20:55;8.90;99.90
35920;DHT22;36160;53.370;-6.196;2023-04-24T04:23:22;8.90;99.90
35920;DHT22;36160;53.370;-6.196;2023-04-24T04:25:47;8.90;99.90
35920;DHT22;36160;53.370;-6.196;2023-04-24T04:28:13;8.80;99.90
35920;DHT22;36160;53.370;-6.196;2023-04-24T04:30:38;8.80;99.90
35920;DHT22;36160;53.370;-6.196;2023-04-24T04:33:05;8.90;99.90
35920;DHT22;36160;53.370;-6.196;2023-04-24T04:35:30;8.80;99.90
35920;DHT22;36160;53.370;-6.196;2023-04-24T04:37:56;8.70;99.90
35920;DHT22;36160;53.370;-6.196;2023-04-24T04:40:24;8.80;99.90
35920;DHT22;36160;53.370;-6.196;2023-04-24T04:42:50;8.60;99.90
35920;DHT22;36160;53.370;-6.196;2023-04-24T04:45:18;8.60;99.90
35920;DHT22;36160;53.370;-6.196;2023-04-24T04:47:44;8.60;99.90
35920;DHT22;36160;53.370;-6.196;2023-04-24T04:50:09;8.40;99.90
35920;DHT22;36160;53.370;-6.196;2023-04-24T04:52:35;8.30;99.90
35920;DHT22;36160;53.370;-6.196;2023-04-24T04:55:01;8.30;99.90
35920;DHT22;36160;53.370;-6.196;2023-04-24T04:57:27;8.30;99.90
35920;DHT22;36160;53.370;-6.196;2023-04-24T04:59:52;8.20;99.90
35920;DHT22;36160;53.370;-6.196;2023-04-24T05:02:18;8.20;99.90
35920;DHT22;36160;53.370;-6.196;2023-04-24T05:04:43;8.10;99.90
35920;DHT22;36160;53.370;-6.196;2023-04-24T05:07:10;8.10;99.90
35920;DHT22;36160;53.370;-6.196;2023-04-24T05:09:36;8.00;99.90
35920;DHT22;36160;53.370;-6.196;2023-04-24T05:12:01;7.90;99.90
35920;DHT22;36160;53.370;-6.196;2023-04-24T05:14:27;8.00;99.90
35920;DHT22;36160;53.370;-6.196;2023-04-24T05:16:52;7.90;99.90
35920;DHT22;36160;53.370;-6.196;2023-04-24T05:19:18;7.90;99.90
35920;DHT22;36160;53.370;-6.196;2023-04-24T05:21:44;7.80;99.90
35920;DHT22;36160;53.370;-6.196;2023-04-24T05:24:09;7.70;99.90
35920;DHT22;36160;53.370;-6.196;2023-04-24T05:26:35;7.70;99.90
35920;DHT22;36160;53.370;-6.196;2023-04-24T05:29:01;7.70;99.90
35920;DHT22;36160;53.370;-6.196;2023-04-24T05:31:27;7.50;99.90
35920;DHT22;36160;53.370;-6.196;2023-04-24T05:33:53;7.50;99.90
35920;DHT22;36160;53.370;-6.196;2023-04-24T05:36:19;7.50;99.90
35920;DHT22;36160;53.370;-6.196;2023-04-24T05:38:45;7.40;99.90
35920;DHT22;36160;53.370;-6.196;2023-04-24T05:41:10;7.30;99.90
35920;DHT22;36160;53.370;-6.196;2023-04-24T05:43:36;7.20;99.90
35920;DHT22;36160;53.370;-6.196;2023-04-24T05:46:01;7.10;99.90
35920;DHT22;36160;53.370;-6.196;2023-04-24T05:48:27;7.20;99.90
35920;DHT22;36160;53.370;-6.196;2023-04-24T05:50:53;7.20;99.90
35920;DHT22;36160;53.370;-6.196;2023-04-24T05:53:19;7.20;99.90
35920;DHT22;36160;53.370;-6.196;2023-04-24T05:55:45;7.20;99.90
35920;DHT22;36160;53.370;-6.196;2023-04-24T05:58:11;7.20;99.90
35920;DHT22;36160;53.370;-6.196;2023-04-24T06:00:37;7.30;99.90
35920;DHT22;36160;53.370;-6.196;2023-04-24T06:03:05;7.30;99.90
35920;DHT22;36160;53.370;-6.196;2023-04-24T06:05:31;7.30;99.90
35920;DHT22;36160;53.370;-6.196;2023-04-24T06:07:57;7.20;99.90
35920;DHT22;36160;53.370;-6.196;2023-04-24T06:10:22;7.20;99.90
35920;DHT22;36160;53.370;-6.196;2023-04-24T06:12:48;7.20;99.90
35920;DHT22;36160;53.370;-6.196;2023-04-24T06:15:14;7.20;99.90
35920;DHT22;36160;53.370;-6.196;2023-04-24T06:17:39;7.10;99.90
35920;DHT22;36160;53.370;-6.196;2023-04-24T06:20:06;7.20;99.90
35920;DHT22;36160;53.370;-6.196;2023-04-24T06:22:32;7.20;99.90
35920;DHT22;36160;53.370;-6.196;2023-04-24T06:24:59;7.20;99.90
35920;DHT22;36160;53.370;-6.196;2023-04-24T06:27:25;7.10;99.90
35920;DHT22;36160;53.370;-6.196;2023-04-24T06:29:50;7.00;99.90
35920;DHT22;36160;53.370;-6.196;2023-04-24T06:32:23;7.10;99.90
35920;DHT22;36160;53.370;-6.196;2023-04-24T06:34:49;7.00;99.90
35920;DHT22;36160;53.370;-6.196;2023-04-24T06:37:16;6.90;99.90
35920;DHT22;36160;53.370;-6.196;2023-04-24T06:39:42;6.90;99.90
35920;DHT22;36160;53.370;-6.196;2023-04-24T06:42:07;6.70;99.90
35920;DHT22;36160;53.370;-6.196;2023-04-24T06:44:35;6.80;99.90
35920;DHT22;36160;53.370;-6.196;2023-04-24T06:47:06;6.80;99.90
35920;DHT22;36160;53.370;-6.196;2023-04-24T06:49:32;6.70;99.90
35920;DHT22;36160;53.370;-6.196;2023-04-24T06:51:58;6.70;99.90
35920;DHT22;36160;53.370;-6.196;2023-04-24T06:54:24;6.70;99.90
35920;DHT22;36160;53.370;-6.196;2023-04-24T06:56:49;6.70;99.90
35920;DHT22;36160;53.370;-6.196;2023-04-24T06:59:16;6.60;99.90
35920;DHT22;36160;53.370;-6.196;2023-04-24T07:01:42;6.80;99.90
35920;DHT22;36160;53.370;-6.196;2023-04-24T07:04:08;6.70;99.90
35920;DHT22;36160;53.370;-6.196;2023-04-24T07:06:33;6.80;99.90
35920;DHT22;36160;53.370;-6.196;2023-04-24T07:09:02;6.80;99.90
35920;DHT22;36160;53.370;-6.196;2023-04-24T07:11:28;6.90;99.90
35920;DHT22;36160;53.370;-6.196;2023-04-24T07:13:55;6.90;99.90
35920;DHT22;36160;53.370;-6.196;2023-04-24T07:16:21;7.00;99.90
35920;DHT22;36160;53.370;-6.196;2023-04-24T07:18:47;7.00;99.90
35920;DHT22;36160;53.370;-6.196;2023-04-24T07:21:12;7.00;99.90
35920;DHT22;36160;53.370;-6.196;2023-04-24T07:23:38;7.00;99.90
35920;DHT22;36160;53.370;-6.196;2023-04-24T07:26:04;7.00;99.90
35920;DHT22;36160;53.370;-6.196;2023-04-24T07:28:31;7.00;99.90
35920;DHT22;36160;53.370;-6.196;2023-04-24T07:30:57;7.00;99.90
35920;DHT22;36160;53.370;-6.196;2023-04-24T07:33:24;7.10;99.90
35920;DHT22;36160;53.370;-6.196;2023-04-24T07:35:50;7.00;99.90
35920;DHT22;36160;53.370;-6.196;2023-04-24T07:38:18;7.00;99.90
35920;DHT22;36160;53.370;-6.196;2023-04-24T07:40:48;7.00;99.90
35920;DHT22;36160;53.370;-6.196;2023-04-24T07:43:14;7.00;99.90
35920;DHT22;36160;53.370;-6.196;2023-04-24T07:45:40;6.90;99.90
35920;DHT22;36160;53.370;-6.196;2023-04-24T07:48:06;7.00;99.90
35920;DHT22;36160;53.370;-6.196;2023-04-24T07:50:34;7.10;99.90
35920;DHT22;36160;53.370;-6.196;2023-04-24T07:53:01;7.00;99.90
35920;DHT22;36160;53.370;-6.196;2023-04-24T07:55:29;7.00;99.90
35920;DHT22;36160;53.370;-6.196;2023-04-24T07:57:55;6.90;99.90
35920;DHT22;36160;53.370;-6.196;2023-04-24T08:00:21;7.10;99.90
35920;DHT22;36160;53.370;-6.196;2023-04-24T08:02:47;7.10;99.90
35920;DHT22;36160;53.370;-6.196;2023-04-24T08:05:13;7.10;99.90
35920;DHT22;36160;53.370;-6.196;2023-04-24T08:07:38;7.20;99.90
35920;DHT22;36160;53.370;-6.196;2023-04-24T08:10:05;7.30;99.90
35920;DHT22;36160;53.370;-6.196;2023-04-24T08:12:31;7.40;99.90
35920;DHT22;36160;53.370;-6.196;2023-04-24T08:14:57;7.40;99.90
35920;DHT22;36160;53.370;-6.196;2023-04-24T08:17:24;7.40;99.90
35920;DHT22;36160;53.370;-6.196;2023-04-24T08:19:50;7.50;99.90
35920;DHT22;36160;53.370;-6.196;2023-04-24T08:22:18;7.50;99.90
35920;DHT22;36160;53.370;-6.196;2023-04-24T08:24:44;7.70;99.90
35920;DHT22;36160;53.370;-6.196;2023-04-24T08:27:10;7.80;99.90
35920;DHT22;36160;53.370;-6.196;2023-04-24T08:29:37;7.90;99.90
35920;DHT22;36160;53.370;-6.196;2023-04-24T08:32:03;8.00;99.90
35920;DHT22;36160;53.370;-6.196;2023-04-24T08:34:29;8.10;99.90
35920;DHT22;36160;53.370;-6.196;2023-04-24T08:36:54;8.20;99.90
35920;DHT22;36160;53.370;-6.196;2023-04-24T08:39:20;8.10;99.90
35920;DHT22;36160;53.370;-6.196;2023-04-24T08:41:48;8.10;99.90
35920;DHT22;36160;53.370;-6.196;2023-04-24T08:44:14;8.00;99.90
35920;DHT22;36160;53.370;-6.196;2023-04-24T08:46:43;8.00;99.90
35920;DHT22;36160;53.370;-6.196;2023-04-24T08:49:12;8.20;99.90
35920;DHT22;36160;53.370;-6.196;2023-04-24T08:51:38;8.20;99.90
35920;DHT22;36160;53.370;-6.196;2023-04-24T08:54:04;8.20;99.90
35920;DHT22;36160;53.370;-6.196;2023-04-24T08:56:33;8.30;99.90
35920;DHT22;36160;53.370;-6.196;2023-04-24T08:58:59;8.20;99.90
35920;DHT22;36160;53.370;-6.196;2023-04-24T09:01:25;8.20;99.90
35920;DHT22;36160;53.370;-6.196;2023-04-24T09:03:53;8.30;99.90
35920;DHT22;36160;53.370;-6.196;2023-04-24T09:06:21;8.40;99.90
35920;DHT22;36160;53.370;-6.196;2023-04-24T09:08:47;8.40;99.90
35920;DHT22;36160;53.370;-6.196;2023-04-24T09:11:14;8.30;99.90
35920;DHT22;36160;53.370;-6.196;2023-04-24T09:13:41;8.40;99.90
35920;DHT22;36160;53.370;-6.196;2023-04-24T09:16:07;8.40;99.90
35920;DHT22;36160;53.370;-6.196;2023-04-24T09:18:33;8.60;99.90
35920;DHT22;36160;53.370;-6.196;2023-04-24T09:23:29;8.50;99.90
35920;DHT22;36160;53.370;-6.196;2023-04-24T09:25:55;8.40;99.90
35920;DHT22;36160;53.370;-6.196;2023-04-24T09:28:32;8.40;99.90
35920;DHT22;36160;53.370;-6.196;2023-04-24T09:31:11;8.40;99.90
35920;DHT22;36160;53.370;-6.196;2023-04-24T09:33:38;8.50;99.90
35920;DHT22;36160;53.370;-6.196;2023-04-24T09:36:04;8.40;99.90
35920;DHT22;36160;53.370;-6.196;2023-04-24T09:38:40;8.40;99.90
35920;DHT22;36160;53.370;-6.196;2023-04-24T09:41:07;8.50;99.90
35920;DHT22;36160;53.370;-6.196;2023-04-24T09:43:33;8.50;99.90
35920;DHT22;36160;53.370;-6.196;2023-04-24T09:46:05;8.50;99.90
35920;DHT22;36160;53.370;-6.196;2023-04-24T09:48:32;8.70;99.90
35920;DHT22;36160;53.370;-6.196;2023-04-24T09:50:59;8.80;99.90
35920;DHT22;36160;53.370;-6.196;2023-04-24T09:53:26;8.80;99.90
35920;DHT22;36160;53.370;-6.196;2023-04-24T09:55:52;8.70;99.90
35920;DHT22;36160;53.370;-6.196;2023-04-24T09:58:24;8.80;99.90
35920;DHT22;36160;53.370;-6.196;2023-04-24T10:00:53;8.80;38.20
35920;DHT22;36160;53.370;-6.196;2023-04-24T10:03:20;8.80;1.00
35920;DHT22;36160;53.370;-6.196;2023-04-24T10:05:47;9.00;50.40
35920;DHT22;36160;53.370;-6.196;2023-04-24T10:08:13;9.00;99.90
35920;DHT22;36160;53.370;-6.196;2023-04-24T10:10:41;9.00;5.20
35920;DHT22;36160;53.370;-6.196;2023-04-24T10:13:09;9.00;99.90
35920;DHT22;36160;53.370;-6.196;2023-04-24T10:15:40;9.30;1.00
35920;DHT22;36160;53.370;-6.196;2023-04-24T10:18:06;9.20;99.90
35920;DHT22;36160;53.370;-6.196;2023-04-24T10:20:33;9.20;99.90
35920;DHT22;36160;53.370;-6.196;2023-04-24T10:23:00;9.30;99.90
35920;DHT22;36160;53.370;-6.196;2023-04-24T10:25:30;9.10;99.90
35920;DHT22;36160;53.370;-6.196;2023-04-24T10:27:58;9.10;99.90
35920;DHT22;36160;53.370;-6.196;2023-04-24T10:30:26;9.30;99.90
35920;DHT22;36160;53.370;-6.196;2023-04-24T10:32:52;9.40;1.00
35920;DHT22;36160;53.370;-6.196;2023-04-24T10:35:18;9.50;99.90
35920;DHT22;36160;53.370;-6.196;2023-04-24T10:37:58;9.50;99.90
35920;DHT22;36160;53.370;-6.196;2023-04-24T10:40:35;9.60;1.00
35920;DHT22;36160;53.370;-6.196;2023-04-24T10:43:08;9.80;1.00
35920;DHT22;36160;53.370;-6.196;2023-04-24T10:45:37;9.50;99.90
35920;DHT22;36160;53.370;-6.196;2023-04-24T10:48:09;9.70;1.00
35920;DHT22;36160;53.370;-6.196;2023-04-24T10:50:52;9.60;99.90
35920;DHT22;36160;53.370;-6.196;2023-04-24T10:53:23;9.60;74.30
35920;DHT22;36160;53.370;-6.196;2023-04-24T10:56:05;9.80;30.50
35920;DHT22;36160;53.370;-6.196;2023-04-24T10:58:51;9.60;1.00
35920;DHT22;36160;53.370;-6.196;2023-04-24T11:03:57;9.90;99.90
35920;DHT22;36160;53.370;-6.196;2023-04-24T11:06:34;9.70;99.90
35920;DHT22;36160;53.370;-6.196;2023-04-24T11:09:08;9.70;95.70
35920;DHT22;36160;53.370;-6.196;2023-04-24T11:11:35;9.80;90.20
35920;DHT22;36160;53.370;-6.196;2023-04-24T11:14:04;9.80;17.40
35920;DHT22;36160;53.370;-6.196;2023-04-24T11:16:53;9.80;1.00
35920;DHT22;36160;53.370;-6.196;2023-04-24T11:19:26;9.60;99.90
35920;DHT22;36160;53.370;-6.196;2023-04-24T11:21:56;9.80;1.00
35920;DHT22;36160;53.370;-6.196;2023-04-24T11:27:05;9.60;3.10
35920;DHT22;36160;53.370;-6.196;2023-04-24T11:29:49;10.00;63.60
35920;DHT22;36160;53.370;-6.196;2023-04-24T11:32:27;10.20;1.00
35920;DHT22;36160;53.370;-6.196;2023-04-24T11:34:59;10.30;99.90
35920;DHT22;36160;53.370;-6.196;2023-04-24T11:37:33;10.30;9.20
35920;DHT22;36160;53.370;-6.196;2023-04-24T11:40:00;10.10;1.00
35920;DHT22;36160;53.370;-6.196;2023-04-24T11:42:26;10.00;1.00
35920;DHT22;36160;53.370;-6.196;2023-04-24T11:44:55;10.10;1.00
35920;DHT22;36160;53.370;-6.196;2023-04-24T11:47:31;10.30;99.90
35920;DHT22;36160;53.370;-6.196;2023-04-24T11:49:59;10.30;99.90
35920;DHT22;36160;53.370;-6.196;2023-04-24T11:52:36;10.30;99.90
35920;DHT22;36160;53.370;-6.196;2023-04-24T11:55:02;10.40;99.90
35920;DHT22;36160;53.370;-6.196;2023-04-24T11:57:29;10.40;99.90
35920;DHT22;36160;53.370;-6.196;2023-04-24T12:00:00;10.60;99.90
35920;DHT22;36160;53.370;-6.196;2023-04-24T12:02:26;11.10;99.90
35920;DHT22;36160;53.370;-6.196;2023-04-24T12:04:56;10.90;99.90
35920;DHT22;36160;53.370;-6.196;2023-04-24T12:07:23;10.80;99.90
35920;DHT22;36160;53.370;-6.196;2023-04-24T12:09:57;10.90;99.90
35920;DHT22;36160;53.370;-6.196;2023-04-24T12:12:26;10.50;94.50
35920;DHT22;36160;53.370;-6.196;2023-04-24T12:14:55;10.70;16.70
35920;DHT22;36160;53.370;-6.196;2023-04-24T12:17:32;10.60;1.00
35920;DHT22;36160;53.370;-6.196;2023-04-24T12:20:04;10.90;1.00
35920;DHT22;36160;53.370;-6.196;2023-04-24T12:22:51;11.10;6.40
35920;DHT22;36160;53.370;-6.196;2023-04-24T12:25:20;10.60;99.90
35920;DHT22;36160;53.370;-6.196;2023-04-24T12:27:51;10.90;99.90
35920;DHT22;36160;53.370;-6.196;2023-04-24T12:30:17;11.10;99.90
35920;DHT22;36160;53.370;-6.196;2023-04-24T12:32:48;11.00;99.90
35920;DHT22;36160;53.370;-6.196;2023-04-24T12:35:19;11.20;99.90
35920;DHT22;36160;53.370;-6.196;2023-04-24T12:37:46;11.00;99.90
35920;DHT22;36160;53.370;-6.196;2023-04-24T12:40:12;10.50;99.90
35920;DHT22;36160;53.370;-6.196;2023-04-24T12:42:51;10.60;99.90
35920;DHT22;36160;53.370;-6.196;2023-04-24T12:45:18;10.60;99.90
35920;DHT22;36160;53.370;-6.196;2023-04-24T12:47:45;10.50;99.90
35920;DHT22;36160;53.370;-6.196;2023-04-24T12:50:13;10.80;99.90
35920;DHT22;36160;53.370;-6.196;2023-04-24T12:52:40;10.70;99.90
35920;DHT22;36160;53.370;-6.196;2023-04-24T12:55:06;10.40;99.90
35920;DHT22;36160;53.370;-6.196;2023-04-24T12:57:37;10.30;99.90
35920;DHT22;36160;53.370;-6.196;2023-04-24T13:00:04;10.30;99.90
35920;DHT22;36160;53.370;-6.196;2023-04-24T13:02:30;10.30;99.90
35920;DHT22;36160;53.370;-6.196;2023-04-24T13:04:57;10.30;99.90
35920;DHT22;36160;53.370;-6.196;2023-04-24T13:07:23;10.40;99.90
35920;DHT22;36160;53.370;-6.196;2023-04-24T13:09:50;10.10;99.90
35920;DHT22;36160;53.370;-6.196;2023-04-24T13:12:17;10.40;99.90
35920;DHT22;36160;53.370;-6.196;2023-04-24T13:14:43;10.20;99.90
35920;DHT22;36160;53.370;-6.196;2023-04-24T13:17:09;10.30;99.90
35920;DHT22;36160;53.370;-6.196;2023-04-24T13:19:40;10.40;99.90
35920;DHT22;36160;53.370;-6.196;2023-04-24T13:22:08;10.70;99.90
35920;DHT22;36160;53.370;-6.196;2023-04-24T13:24:34;10.70;99.90
35920;DHT22;36160;53.370;-6.196;2023-04-24T13:27:00;10.80;99.90
35920;DHT22;36160;53.370;-6.196;2023-04-24T13:29:26;10.90;99.90
35920;DHT22;36160;53.370;-6.196;2023-04-24T13:31:53;11.10;99.90
35920;DHT22;36160;53.370;-6.196;2023-04-24T13:34:20;10.60;99.90
35920;DHT22;36160;53.370;-6.196;2023-04-24T13:36:46;10.80;99.90
35920;DHT22;36160;53.370;-6.196;2023-04-24T13:39:12;10.40;85.80
35920;DHT22;36160;53.370;-6.196;2023-04-24T13:41:38;10.40;95.80
35920;DHT22;36160;53.370;-6.196;2023-04-24T13:44:04;10.20;94.90
35920;DHT22;36160;53.370;-6.196;2023-04-24T13:46:30;10.20;90.30
35920;DHT22;36160;53.370;-6.196;2023-04-24T13:48:56;10.40;97.60
35920;DHT22;36160;53.370;-6.196;2023-04-24T13:51:23;10.60;99.90
35920;DHT22;36160;53.370;-6.196;2023-04-24T13:53:48;10.70;99.90
35920;DHT22;36160;53.370;-6.196;2023-04-24T13:56:14;10.50;97.10
35920;DHT22;36160;53.370;-6.196;2023-04-24T13:58:40;10.60;86.80
35920;DHT22;36160;53.370;-6.196;2023-04-24T14:01:06;10.90;90.00
35920;DHT22;36160;53.370;-6.196;2023-04-24T14:03:33;10.70;50.20
35920;DHT22;36160;53.370;-6.196;2023-04-24T14:05:59;10.60;29.70
35920;DHT22;36160;53.370;-6.196;2023-04-24T14:08:25;10.80;58.50
35920;DHT22;36160;53.370;-6.196;2023-04-24T14:10:51;10.80;27.70
35920;DHT22;36160;53.370;-6.196;2023-04-24T14:13:17;10.70;16.90
35920;DHT22;36160;53.370;-6.196;2023-04-24T14:15:42;10.70;17.90
35920;DHT22;36160;53.370;-6.196;2023-04-24T14:18:08;10.40;9.50
35920;DHT22;36160;53.370;-6.196;2023-04-24T14:20:34;10.70;19.50
35920;DHT22;36160;53.370;-6.196;2023-04-24T14:23:00;10.60;10.30
35920;DHT22;36160;53.370;-6.196;2023-04-24T14:25:25;10.70;34.10
35920;DHT22;36160;53.370;-6.196;2023-04-24T14:27:51;10.70;17.60
35920;DHT22;36160;53.370;-6.196;2023-04-24T14:30:17;10.90;44.70
35920;DHT22;36160;53.370;-6.196;2023-04-24T14:32:43;10.60;14.40
35920;DHT22;36160;53.370;-6.196;2023-04-24T14:35:09;10.70;7.80
35920;DHT22;36160;53.370;-6.196;2023-04-24T14:37:35;10.60;19.30
35920;DHT22;36160;53.370;-6.196;2023-04-24T14:40:01;10.30;1.00
35920;DHT22;36160;53.370;-6.196;2023-04-24T14:42:27;10.40;1.00
35920;DHT22;36160;53.370;-6.196;2023-04-24T14:44:54;10.30;5.50
35920;DHT22;36160;53.370;-6.196;2023-04-24T14:47:20;10.70;32.00
35920;DHT22;36160;53.370;-6.196;2023-04-24T14:49:50;10.70;17.00
35920;DHT22;36160;53.370;-6.196;2023-04-24T14:52:16;10.90;22.10
35920;DHT22;36160;53.370;-6.196;2023-04-24T14:54:42;10.70;14.30
35920;DHT22;36160;53.370;-6.196;2023-04-24T14:57:08;10.70;32.10
35920;DHT22;36160;53.370;-6.196;2023-04-24T14:59:34;10.70;5.90
35920;DHT22;36160;53.370;-6.196;2023-04-24T15:02:00;10.90;27.70
35920;DHT22;36160;53.370;-6.196;2023-04-24T15:04:26;11.00;25.60
35920;DHT22;36160;53.370;-6.196;2023-04-24T15:06:52;10.50;7.50
35920;DHT22;36160;53.370;-6.196;2023-04-24T15:09:23;10.40;1.00
35920;DHT22;36160;53.370;-6.196;2023-04-24T15:11:49;10.70;5.70
35920;DHT22;36160;53.370;-6.196;2023-04-24T15:14:16;10.80;3.90
35920;DHT22;36160;53.370;-6.196;2023-04-24T15:16:42;10.90;1.00
35920;DHT22;36160;53.370;-6.196;2023-04-24T15:19:07;10.80;1.00
35920;DHT22;36160;53.370;-6.196;2023-04-24T15:21:33;10.70;1.00
35920;DHT22;36160;53.370;-6.196;2023-04-24T15:23:59;11.00;1.00
35920;DHT22;36160;53.370;-6.196;2023-04-24T15:26:25;11.00;1.00
35920;DHT22;36160;53.370;-6.196;2023-04-24T15:28:51;11.10;1.00
35920;DHT22;36160;53.370;-6.196;2023-04-24T15:31:17;11.10;1.00
35920;DHT22;36160;53.370;-6.196;2023-04-24T15:33:43;10.90;99.90